| time (UTC) | temp F | wind direction | speed MPH | gust MPH | rain 1hr in | rain 24hr in | rain mn in | humidity % | barometer mb |
| 20260831030541 | 64 | 177 | 0.0 | 0.0 | 0.01 | 0.38 | 0.38 | 93 | 1019.6 |
| 20260831030050 | 64 | 177 | 0.0 | 0.0 | 0.01 | 0.38 | 0.38 | 93 | 1019.5 |
| 20260831025540 | 64 | 177 | 0.0 | 0.0 | 0.01 | 0.38 | 0.38 | 93 | 1019.5 |
| 20260831025040 | 64 | 177 | 0.0 | 2.0 | 0.01 | 0.38 | 0.38 | 93 | 1019.5 |
| 20260831024540 | 64 | 177 | 0.0 | 2.0 | 0.00 | 0.37 | 0.37 | 93 | 1019.4 |
| 20260831024039 | 64 | 177 | 0.0 | 0.0 | 0.00 | 0.37 | 0.37 | 93 | 1019.4 |
| 20260831023538 | 64 | 177 | 0.0 | 0.0 | 0.00 | 0.37 | 0.37 | 93 | 1019.4 |
| 20260831023039 | 64 | 177 | 0.0 | 0.0 | 0.00 | 0.37 | 0.37 | 93 | 1019.4 |
| 20260831022540 | 64 | 177 | 0.0 | 0.0 | 0.00 | 0.37 | 0.37 | 93 | 1019.3 |
| 20260831022038 | 64 | 177 | 0.0 | 2.0 | 0.00 | 0.37 | 0.37 | 93 | 1019.3 |
| 20260831021537 | 64 | 177 | 0.0 | 2.0 | 0.00 | 0.37 | 0.37 | 93 | 1019.3 |
| 20260831021037 | 64 | 177 | 0.0 | 2.0 | 0.00 | 0.37 | 0.37 | 93 | 1019.1 |
| 20260831020537 | 64 | 177 | 0.0 | 1.0 | 0.00 | 0.37 | 0.37 | 93 | 1019.1 |
| 20260831020037 | 64 | 177 | 0.0 | 2.0 | 0.00 | 0.37 | 0.37 | 93 | 1019.0 |
| 20260831015536 | 64 | 177 | 0.0 | 2.0 | 0.00 | 0.37 | 0.37 | 93 | 1019.0 |
| 20260831015036 | 64 | 177 | 0.0 | 2.0 | 0.00 | 0.37 | 0.37 | 93 | 1019.0 |
| 20260831014545 | 64 | 177 | 0.0 | 0.0 | 0.00 | 0.37 | 0.37 | 93 | 1018.9 |
| 20260831014036 | 64 | 177 | 0.0 | 0.0 | 0.00 | 0.37 | 0.37 | 93 | 1018.9 |
| 20260831013536 | 64 | 177 | 0.0 | 0.0 | 0.00 | 0.37 | 0.37 | 93 | 1018.9 |
| 20260831013038 | 64 | 177 | 0.0 | 0.0 | 0.00 | 0.37 | 0.37 | 92 | 1018.9 |
| 20260831012535 | 64 | 177 | 0.0 | 0.0 | 0.00 | 0.37 | 0.37 | 92 | 1019.0 |
| 20260831012035 | 64 | 177 | 0.0 | 0.0 | 0.00 | 0.37 | 0.37 | 92 | 1019.1 |
| 20260831011539 | 64 | 177 | 0.0 | 0.0 | 0.00 | 0.37 | 0.37 | 92 | 1019.1 |
| 20260831011034 | 65 | 177 | 0.0 | 0.0 | 0.00 | 0.37 | 0.37 | 92 | 1019.1 |
| 20260831010534 | 65 | 177 | 0.0 | 0.0 | 0.00 | 0.37 | 0.37 | 92 | 1019.1 |
| 20260831010034 | 65 | 177 | 0.0 | 0.0 | 0.00 | 0.37 | 0.37 | 92 | 1019.2 |
| 20260831005533 | 65 | 177 | 0.0 | 0.0 | 0.00 | 0.37 | 0.37 | 92 | 1019.2 |
| 20260831005034 | 65 | 177 | 0.0 | 0.0 | 0.00 | 0.37 | 0.37 | 92 | 1019.1 |
| 20260831004533 | 65 | 177 | 0.0 | 0.0 | 0.00 | 0.37 | 0.37 | 92 | 1019.1 |
| 20260831004033 | 65 | 177 | 0.0 | 0.0 | 0.00 | 0.37 | 0.37 | 92 | 1019.0 |
| 20260831003532 | 65 | 177 | 0.0 | 0.0 | 0.00 | 0.37 | 0.37 | 92 | 1019.1 |
| 20260831003032 | 65 | 177 | 0.0 | 0.0 | 0.00 | 0.37 | 0.37 | 92 | 1019.1 |
| 20260831002532 | 65 | 177 | 0.0 | 0.0 | 0.01 | 0.37 | 0.37 | 92 | 1019.1 |
| 20260831002031 | 65 | 177 | 0.0 | 0.0 | 0.02 | 0.37 | 0.37 | 91 | 1019.0 |
| 20260831001534 | 65 | 177 | 0.0 | 0.0 | 0.04 | 0.37 | 0.37 | 91 | 1019.0 |
| 20260831001031 | 65 | 177 | 0.0 | 0.0 | 0.05 | 0.37 | 0.37 | 91 | 1018.9 |
| 20260831000531 | 65 | 177 | 0.0 | 0.0 | 0.11 | 0.37 | 0.37 | 91 | 1018.9 |
| 20260831000030 | 65 | 177 | 0.0 | 0.0 | 0.20 | 0.37 | 0.37 | 91 | 1018.8 |
| 20260830235530 | 65 | 177 | 0.0 | 0.0 | 0.23 | 0.37 | 0.37 | 91 | 1018.5 |
| 20260830235029 | 65 | 177 | 0.0 | 0.0 | 0.23 | 0.37 | 0.37 | 91 | 1018.5 |
| 20260830234530 | 65 | 177 | 0.0 | 0.0 | 0.23 | 0.37 | 0.37 | 91 | 1018.8 |
| 20260830234029 | 65 | 177 | 0.0 | 0.0 | 0.23 | 0.37 | 0.37 | 90 | 1018.6 |
| 20260830233528 | 65 | 177 | 0.0 | 0.0 | 0.23 | 0.37 | 0.37 | 90 | 1018.4 |
| 20260830233037 | 65 | 177 | 0.0 | 0.0 | 0.23 | 0.37 | 0.37 | 90 | 1018.4 |
| 20260830232528 | 66 | 177 | 0.0 | 0.0 | 0.22 | 0.36 | 0.36 | 90 | 1018.2 |
| 20260830232027 | 66 | 177 | 0.0 | 2.0 | 0.22 | 0.35 | 0.35 | 90 | 1019.0 |
| 20260830231527 | 66 | 153 | 0.0 | 6.0 | 0.22 | 0.33 | 0.33 | 89 | 1019.4 |
| 20260830231025 | 66 | 184 | 1.0 | 6.0 | 0.24 | 0.31 | 0.31 | 89 | 1019.1 |
| 20260830230525 | 66 | 122 | 0.0 | 4.0 | 0.23 | 0.24 | 0.24 | 88 | 1018.8 |
| 20260830230026 | 66 | 355 | 0.0 | 4.0 | 0.16 | 0.16 | 0.16 | 88 | 1019.0 |
| 20260830225523 | 66 | 83 | 0.0 | 2.0 | 0.14 | 0.14 | 0.14 | 87 | 1018.9 |
| 20260830225031 | 67 | 61 | 0.0 | 2.0 | 0.14 | 0.14 | 0.14 | 86 | 1018.0 |
| 20260830224521 | 67 | 61 | 0.0 | 1.0 | 0.14 | 0.14 | 0.14 | 86 | 1017.3 |
| 20260830224020 | 67 | 61 | 0.0 | 3.0 | 0.14 | 0.14 | 0.14 | 85 | 1017.3 |
| 20260830223519 | 67 | 59 | 0.0 | 3.0 | 0.14 | 0.14 | 0.14 | 85 | 1017.0 |
| 20260830223018 | 68 | 53 | 0.0 | 3.0 | 0.14 | 0.14 | 0.14 | 84 | 1017.4 |
| 20260830222516 | 68 | 317 | 0.0 | 5.0 | 0.14 | 0.14 | 0.14 | 82 | 1017.4 |
| 20260830222014 | 69 | 315 | 1.0 | 7.0 | 0.13 | 0.13 | 0.13 | 82 | 1017.3 |
| 20260830221514 | 69 | 208 | 3.0 | 11.0 | 0.10 | 0.10 | 0.10 | 80 | 1017.6 |
| 20260830221013 | 70 | 57 | 2.0 | 11.0 | 0.06 | 0.06 | 0.06 | 78 | 1018.1 |
| 20260830220511 | 70 | 99 | 2.0 | 9.0 | 0.01 | 0.01 | 0.01 | 75 | 1017.7 |
| 20260830220110 | 70 | 146 | 2.0 | 8.0 | 0.00 | 0.00 | 0.00 | 73 | 1017.5 |
| 20260830215510 | 70 | 317 | 1.0 | 6.0 | 0.00 | 0.00 | 0.00 | 72 | 1016.4 |
| 20260830215010 | 70 | 319 | 0.0 | 3.0 | 0.00 | 0.00 | 0.00 | 72 | 1016.1 |
| 20260830214510 | 70 | 302 | 1.0 | 3.0 | 0.00 | 0.00 | 0.00 | 72 | 1016.0 |
| 20260830214008 | 71 | 300 | 0.0 | 3.0 | 0.00 | 0.00 | 0.00 | 71 | 1016.0 |
| 20260830213508 | 71 | 299 | 0.0 | 3.0 | 0.00 | 0.00 | 0.00 | 71 | 1016.0 |
| 20260830213012 | 71 | 298 | 0.0 | 1.0 | 0.00 | 0.00 | 0.00 | 71 | 1016.0 |
| 20260830212508 | 71 | 299 | 0.0 | 2.0 | 0.00 | 0.00 | 0.00 | 70 | 1016.0 |
| 20260830212008 | 71 | 299 | 0.0 | 0.0 | 0.00 | 0.00 | 0.00 | 70 | 1016.1 |
| 20260830211508 | 72 | 299 | 0.0 | 1.0 | 0.00 | 0.00 | 0.00 | 70 | 1016.1 |
| 20260830211008 | 72 | 299 | 0.0 | 4.0 | 0.00 | 0.00 | 0.00 | 70 | 1016.2 |
| 20260830210508 | 72 | 299 | 2.0 | 4.0 | 0.00 | 0.00 | 0.00 | 70 | 1016.3 |
| 20260830210018 | 72 | 296 | 1.0 | 3.0 | 0.00 | 0.00 | 0.00 | 70 | 1016.3 |
| 20260830205511 | 72 | 296 | 1.0 | 3.0 | 0.00 | 0.00 | 0.00 | 69 | 1016.3 |
| 20260830205008 | 72 | 296 | 0.0 | 3.0 | 0.00 | 0.00 | 0.00 | 69 | 1016.2 |
| 20260830204507 | 73 | 294 | 0.0 | 2.0 | 0.00 | 0.00 | 0.00 | 69 | 1016.3 |
| 20260830204006 | 73 | 294 | 1.0 | 3.0 | 0.00 | 0.00 | 0.00 | 68 | 1016.3 |
| 20260830203506 | 73 | 294 | 2.0 | 3.0 | 0.00 | 0.00 | 0.00 | 67 | 1016.4 |
| 20260830203006 | 73 | 261 | 0.0 | 2.0 | 0.00 | 0.00 | 0.00 | 66 | 1016.4 |
| 20260830202506 | 74 | 261 | 0.0 | 2.0 | 0.00 | 0.00 | 0.00 | 65 | 1016.3 |
| 20260830202008 | 74 | 260 | 0.0 | 0.0 | 0.00 | 0.00 | 0.00 | 65 | 1016.3 |
| 20260830201508 | 74 | 260 | 0.0 | 0.0 | 0.00 | 0.00 | 0.00 | 65 | 1016.3 |
| 20260830201005 | 75 | 260 | 0.0 | 0.0 | 0.00 | 0.00 | 0.00 | 64 | 1016.3 |
| 20260830200509 | 75 | 260 | 0.0 | 0.0 | 0.00 | 0.00 | 0.00 | 63 | 1016.4 |
| 20260830200005 | 75 | 260 | 0.0 | 0.0 | 0.00 | 0.00 | 0.00 | 63 | 1016.3 |
| 20260830195505 | 75 | 260 | 0.0 | 0.0 | 0.00 | 0.00 | 0.00 | 62 | 1016.4 |
| 20260830195005 | 76 | 260 | 0.0 | 0.0 | 0.00 | 0.00 | 0.00 | 62 | 1016.4 |
| 20260830194507 | 76 | 260 | 0.0 | 0.0 | 0.00 | 0.00 | 0.00 | 62 | 1016.4 |
| 20260830194005 | 76 | 260 | 0.0 | 0.0 | 0.00 | 0.00 | 0.00 | 62 | 1016.4 |
| 20260830193505 | 76 | 260 | 0.0 | 0.0 | 0.00 | 0.00 | 0.00 | 61 | 1016.4 |
| 20260830193005 | 77 | 260 | 0.0 | 0.0 | 0.00 | 0.00 | 0.00 | 61 | 1016.4 |
| 20260830192504 | 77 | 260 | 0.0 | 1.0 | 0.00 | 0.00 | 0.00 | 60 | 1016.4 |
| 20260830192004 | 77 | 260 | 0.0 | 1.0 | 0.00 | 0.00 | 0.00 | 60 | 1016.4 |
| 20260830191518 | 77 | 260 | 0.0 | 1.0 | 0.00 | 0.00 | 0.00 | 59 | 1016.4 |
| 20260830191004 | 78 | 260 | 0.0 | 0.0 | 0.00 | 0.00 | 0.00 | 58 | 1016.3 |
| 20260830190504 | 78 | 260 | 0.0 | 0.0 | 0.00 | 0.00 | 0.00 | 58 | 1016.4 |
| 20260830190004 | 78 | 260 | 0.0 | 0.0 | 0.00 | 0.00 | 0.00 | 58 | 1016.5 |
| 20260830185504 | 78 | 260 | 0.0 | 0.0 | 0.00 | 0.00 | 0.00 | 57 | 1016.4 |
| 20260830185008 | 78 | 260 | 0.0 | 0.0 | 0.00 | 0.00 | 0.00 | 56 | 1016.3 |
| 20260830184504 | 79 | 260 | 0.0 | 0.0 | 0.00 | 0.00 | 0.00 | 55 | 1016.3 |
| 20260830184003 | 79 | 260 | 0.0 | 0.0 | 0.00 | 0.00 | 0.00 | 55 | 1016.2 |
| 20260830183503 | 79 | 260 | 0.0 | 0.0 | 0.00 | 0.00 | 0.00 | 54 | 1016.1 |
| 20260830183004 | 79 | 260 | 0.0 | 1.0 | 0.00 | 0.00 | 0.00 | 54 | 1016.1 |
| 20260830182506 | 79 | 260 | 0.0 | 1.0 | 0.00 | 0.00 | 0.00 | 54 | 1016.1 |
| 20260830182005 | 79 | 260 | 0.0 | 1.0 | 0.00 | 0.00 | 0.00 | 54 | 1016.1 |
| 20260830181503 | 80 | 260 | 0.0 | 1.0 | 0.00 | 0.00 | 0.00 | 53 | 1016.1 |
| 20260830181003 | 80 | 260 | 0.0 | 0.0 | 0.00 | 0.00 | 0.00 | 53 | 1016.0 |
| 20260830180502 | 80 | 260 | 0.0 | 1.0 | 0.00 | 0.00 | 0.00 | 53 | 1016.0 |
| 20260830180002 | 80 | 260 | 0.0 | 2.0 | 0.00 | 0.00 | 0.00 | 52 | 1016.1 |
| 20260830175503 | 80 | 260 | 0.0 | 2.0 | 0.00 | 0.00 | 0.00 | 52 | 1016.1 |
| 20260830175002 | 80 | 304 | 0.0 | 0.0 | 0.00 | 0.00 | 0.00 | 52 | 1016.1 |
| 20260830174503 | 81 | 304 | 0.0 | 1.0 | 0.00 | 0.00 | 0.00 | 51 | 1016.2 |
| 20260830174002 | 81 | 304 | 0.0 | 1.0 | 0.00 | 0.00 | 0.00 | 52 | 1016.2 |
| 20260830173504 | 81 | 304 | 0.0 | 2.0 | 0.00 | 0.00 | 0.00 | 51 | 1016.3 |
| 20260830173003 | 81 | 311 | 0.0 | 3.0 | 0.00 | 0.00 | 0.00 | 51 | 1016.3 |
| 20260830172502 | 81 | 312 | 0.0 | 3.0 | 0.00 | 0.00 | 0.00 | 50 | 1016.3 |
| 20260830172003 | 81 | 278 | 0.0 | 4.0 | 0.00 | 0.00 | 0.00 | 50 | 1016.2 |
| 20260830171502 | 81 | 278 | 1.0 | 5.0 | 0.00 | 0.00 | 0.00 | 50 | 1016.2 |
| 20260830171102 | 82 | 193 | 0.0 | 5.0 | 0.00 | 0.00 | 0.00 | 50 | 1016.2 |
| 20260830170600 | 82 | 184 | 0.0 | 3.0 | 0.00 | 0.00 | 0.00 | 50 | 1016.2 |
| 20260830170101 | 82 | 28 | 0.0 | 4.0 | 0.00 | 0.00 | 0.00 | 50 | 1016.2 |
| 20260830165559 | 82 | 350 | 0.0 | 4.0 | 0.00 | 0.00 | 0.00 | 49 | 1016.1 |
| 20260830165100 | 82 | 325 | 0.0 | 2.0 | 0.00 | 0.00 | 0.00 | 49 | 1016.2 |
| 20260830164600 | 82 | 222 | 0.0 | 2.0 | 0.00 | 0.00 | 0.00 | 49 | 1016.2 |
| 20260830164059 | 82 | 229 | 0.0 | 2.0 | 0.00 | 0.00 | 0.00 | 49 | 1016.2 |
| 20260830163559 | 82 | 84 | 0.0 | 0.0 | 0.00 | 0.00 | 0.00 | 49 | 1016.2 |
| 20260830163059 | 82 | 329 | 0.0 | 1.0 | 0.00 | 0.00 | 0.00 | 49 | 1016.2 |
| 20260830162559 | 82 | 175 | 0.0 | 2.0 | 0.00 | 0.00 | 0.00 | 48 | 1016.2 |
| 20260830162058 | 83 | 176 | 0.0 | 2.0 | 0.00 | 0.00 | 0.00 | 48 | 1016.1 |
| 20260830161610 | 83 | 242 | 0.0 | 3.0 | 0.00 | 0.00 | 0.00 | 49 | 1016.1 |
| 20260830161058 | 83 | 321 | 0.0 | 6.0 | 0.00 | 0.00 | 0.00 | 49 | 1016.1 |
| 20260830160558 | 83 | 170 | 2.0 | 6.0 | 0.00 | 0.00 | 0.00 | 48 | 1016.2 |
| 20260830160100 | 83 | 172 | 0.0 | 6.0 | 0.00 | 0.00 | 0.00 | 49 | 1016.2 |
| 20260830155600 | 83 | 174 | 1.0 | 6.0 | 0.00 | 0.00 | 0.00 | 49 | 1016.2 |
| 20260830155057 | 83 | 119 | 1.0 | 6.0 | 0.00 | 0.00 | 0.00 | 49 | 1016.2 |
| 20260830154605 | 83 | 273 | 2.0 | 6.0 | 0.00 | 0.00 | 0.00 | 49 | 1016.2 |
| 20260830154055 | 83 | 185 | 0.0 | 6.0 | 0.00 | 0.00 | 0.00 | 50 | 1016.2 |
| 20260830153555 | 83 | 111 | 0.0 | 7.0 | 0.00 | 0.00 | 0.00 | 50 | 1016.2 |
| 20260830153056 | 82 | 120 | 1.0 | 6.0 | 0.00 | 0.00 | 0.00 | 50 | 1016.3 |
| 20260830152555 | 82 | 239 | 0.0 | 4.0 | 0.00 | 0.00 | 0.00 | 50 | 1016.3 |
| 20260830152055 | 82 | 294 | 1.0 | 5.0 | 0.00 | 0.00 | 0.00 | 50 | 1016.3 |
| 20260830151556 | 82 | 355 | 1.0 | 5.0 | 0.00 | 0.00 | 0.00 | 50 | 1016.3 |
| 20260830151054 | 83 | 205 | 1.0 | 4.0 | 0.00 | 0.00 | 0.00 | 50 | 1016.4 |
| 20260830150555 | 83 | 27 | 1.0 | 5.0 | 0.00 | 0.00 | 0.00 | 50 | 1016.5 |
| 20260830150054 | 83 | 107 | 1.0 | 5.0 | 0.00 | 0.00 | 0.00 | 50 | 1016.4 |
| 20260830145554 | 83 | 123 | 1.0 | 6.0 | 0.00 | 0.00 | 0.00 | 51 | 1016.4 |
| 20260830145057 | 83 | 30 | 2.0 | 6.0 | 0.00 | 0.00 | 0.00 | 50 | 1016.5 |
| 20260830144606 | 83 | 304 | 0.0 | 9.0 | 0.00 | 0.00 | 0.00 | 51 | 1016.6 |
| 20260830144053 | 83 | 330 | 4.0 | 9.0 | 0.00 | 0.00 | 0.00 | 50 | 1016.6 |
| 20260830143552 | 83 | 24 | 0.0 | 3.0 | 0.00 | 0.00 | 0.00 | 51 | 1016.6 |
| 20260830143053 | 83 | 24 | 0.0 | 9.0 | 0.00 | 0.00 | 0.00 | 51 | 1016.6 |
| 20260830142552 | 83 | 22 | 1.0 | 9.0 | 0.00 | 0.00 | 0.00 | 50 | 1016.6 |
| 20260830142052 | 84 | 178 | 0.0 | 8.0 | 0.00 | 0.00 | 0.00 | 49 | 1016.7 |
| 20260830141551 | 84 | 9 | 2.0 | 8.0 | 0.00 | 0.00 | 0.00 | 50 | 1016.7 |
| 20260830141050 | 84 | 285 | 0.0 | 4.0 | 0.00 | 0.00 | 0.00 | 50 | 1016.7 |
| 20260830140550 | 84 | 248 | 1.0 | 4.0 | 0.00 | 0.00 | 0.00 | 50 | 1016.7 |
| 20260830140058 | 84 | 98 | 1.0 | 4.0 | 0.00 | 0.00 | 0.00 | 51 | 1016.8 |
| 20260830135550 | 83 | 192 | 1.0 | 4.0 | 0.00 | 0.00 | 0.00 | 54 | 1017.0 |
| 20260830135048 | 82 | 326 | 0.0 | 6.0 | 0.00 | 0.00 | 0.00 | 53 | 1016.9 |
| 20260830134547 | 82 | 349 | 1.0 | 6.0 | 0.00 | 0.00 | 0.00 | 52 | 1017.0 |
| 20260830134046 | 83 | 349 | 0.0 | 6.0 | 0.00 | 0.00 | 0.00 | 51 | 1017.1 |
| 20260830133545 | 83 | 345 | 3.0 | 6.0 | 0.00 | 0.00 | 0.00 | 51 | 1017.2 |
| 20260830133059 | 83 | 132 | 0.0 | 5.0 | 0.00 | 0.00 | 0.00 | 53 | 1017.2 |
| 20260830132548 | 83 | 214 | 0.0 | 4.0 | 0.00 | 0.00 | 0.00 | 53 | 1017.2 |
| 20260830132045 | 82 | 246 | 1.0 | 5.0 | 0.00 | 0.00 | 0.00 | 52 | 1017.4 |
| 20260830131553 | 83 | 238 | 2.0 | 5.0 | 0.00 | 0.00 | 0.00 | 51 | 1017.4 |
| 20260830131044 | 83 | 47 | 1.0 | 6.0 | 0.00 | 0.00 | 0.00 | 53 | 1017.4 |
| 20260830130544 | 82 | 88 | 1.0 | 5.0 | 0.00 | 0.00 | 0.00 | 53 | 1017.5 |
| 20260830130057 | 82 | 5 | 2.0 | 8.0 | 0.00 | 0.00 | 0.00 | 52 | 1017.5 |
| 20260830125543 | 82 | 184 | 1.0 | 8.0 | 0.00 | 0.00 | 0.00 | 52 | 1017.6 |
| 20260830125042 | 82 | 9 | 1.0 | 5.0 | 0.00 | 0.00 | 0.00 | 53 | 1017.4 |
| 20260830124542 | 82 | 299 | 0.0 | 5.0 | 0.00 | 0.00 | 0.00 | 54 | 1017.5 |
| 20260830124041 | 82 | 216 | 2.0 | 10.0 | 0.00 | 0.00 | 0.00 | 54 | 1017.6 |
| 20260830123541 | 82 | 191 | 2.0 | 10.0 | 0.00 | 0.00 | 0.00 | 53 | 1017.5 |
| 20260830123041 | 82 | 180 | 2.0 | 6.0 | 0.00 | 0.00 | 0.00 | 54 | 1017.6 |
| 20260830122541 | 81 | 343 | 2.0 | 8.0 | 0.00 | 0.00 | 0.00 | 54 | 1017.6 |
| 20260830122041 | 81 | 360 | 2.0 | 8.0 | 0.00 | 0.00 | 0.00 | 54 | 1017.5 |
| 20260830121541 | 82 | 207 | 2.0 | 7.0 | 0.00 | 0.00 | 0.00 | 53 | 1017.7 |
| 20260830121040 | 82 | 295 | 1.0 | 5.0 | 0.00 | 0.00 | 0.00 | 53 | 1017.6 |
| 20260830120541 | 82 | 123 | 0.0 | 4.0 | 0.00 | 0.00 | 0.00 | 53 | 1017.7 |
| 20260830120058 | 82 | 128 | 1.0 | 4.0 | 0.00 | 0.00 | 0.00 | 52 | 1017.8 |
| 20260830115539 | 83 | 348 | 1.0 | 4.0 | 0.00 | 0.00 | 0.00 | 51 | 1017.8 |
| 20260830115036 | 83 | 188 | 0.0 | 7.0 | 0.00 | 0.00 | 0.00 | 54 | 1017.8 |
| 20260830114537 | 82 | 186 | 1.0 | 8.0 | 0.00 | 0.00 | 0.00 | 53 | 1017.8 |
| 20260830114036 | 82 | 131 | 1.0 | 4.0 | 0.00 | 0.00 | 0.00 | 54 | 1017.8 |
| 20260830113534 | 82 | 118 | 1.0 | 4.0 | 0.00 | 0.00 | 0.00 | 55 | 1017.9 |
| 20260830113033 | 81 | 344 | 0.0 | 5.0 | 0.00 | 0.00 | 0.00 | 55 | 1017.9 |
| 20260830112532 | 80 | 108 | 1.0 | 5.0 | 0.00 | 0.00 | 0.00 | 56 | 1018.1 |
| 20260830112031 | 80 | 76 | 1.0 | 4.0 | 0.00 | 0.00 | 0.00 | 56 | 1018.2 |
| 20260830111533 | 80 | 316 | 0.0 | 6.0 | 0.00 | 0.00 | 0.00 | 58 | 1018.3 |
| 20260830111030 | 80 | 317 | 0.0 | 4.0 | 0.00 | 0.00 | 0.00 | 57 | 1018.3 |
| 20260830110530 | 80 | 222 | 1.0 | 6.0 | 0.00 | 0.00 | 0.00 | 59 | 1018.2 |
| 20260830110034 | 80 | 309 | 2.0 | 6.0 | 0.00 | 0.00 | 0.00 | 57 | 1018.3 |
| 20260830105529 | 79 | 169 | 0.0 | 5.0 | 0.00 | 0.00 | 0.00 | 59 | 1018.3 |
| 20260830105028 | 79 | 256 | 1.0 | 7.0 | 0.00 | 0.00 | 0.00 | 58 | 1018.3 |
| 20260830104527 | 79 | 138 | 1.0 | 7.0 | 0.00 | 0.00 | 0.00 | 58 | 1018.5 |
| 20260830104026 | 80 | 128 | 1.0 | 4.0 | 0.00 | 0.00 | 0.00 | 59 | 1018.6 |
| 20260830103524 | 78 | 161 | 0.0 | 3.0 | 0.00 | 0.00 | 0.00 | 60 | 1018.6 |
| 20260830103028 | 78 | 79 | 0.0 | 3.0 | 0.00 | 0.00 | 0.00 | 61 | 1018.7 |
| 20260830102523 | 77 | 84 | 0.0 | 4.0 | 0.00 | 0.00 | 0.00 | 62 | 1018.7 |
| 20260830102027 | 76 | 28 | 1.0 | 4.0 | 0.00 | 0.00 | 0.00 | 62 | 1018.8 |
| 20260830101522 | 76 | 348 | 0.0 | 3.0 | 0.00 | 0.00 | 0.00 | 63 | 1018.8 |
| 20260830101022 | 76 | 344 | 0.0 | 3.0 | 0.00 | 0.00 | 0.00 | 63 | 1018.9 |
| 20260830100523 | 76 | 133 | 0.0 | 3.0 | 0.00 | 0.00 | 0.00 | 63 | 1018.9 |
| 20260830100029 | 76 | 115 | 0.0 | 3.0 | 0.00 | 0.00 | 0.00 | 64 | 1019.0 |
| 20260830095522 | 75 | 129 | 0.0 | 4.0 | 0.00 | 0.00 | 0.00 | 63 | 1019.0 |
| 20260830095021 | 75 | 122 | 1.0 | 4.0 | 0.00 | 0.00 | 0.00 | 63 | 1019.0 |
| 20260830094533 | 76 | 192 | 0.0 | 3.0 | 0.00 | 0.00 | 0.00 | 63 | 1019.0 |
| 20260830094021 | 76 | 185 | 0.0 | 2.0 | 0.00 | 0.00 | 0.00 | 63 | 1019.1 |
| 20260830093520 | 75 | 185 | 1.0 | 3.0 | 0.00 | 0.00 | 0.00 | 63 | 1019.0 |
| 20260830093031 | 76 | 191 | 1.0 | 4.0 | 0.00 | 0.00 | 0.00 | 63 | 1019.0 |
| 20260830092520 | 76 | 105 | 0.0 | 4.0 | 0.00 | 0.00 | 0.00 | 62 | 1019.0 |
| 20260830092020 | 76 | 174 | 1.0 | 4.0 | 0.00 | 0.00 | 0.00 | 62 | 1019.0 |
| 20260830091525 | 77 | 96 | 1.0 | 4.0 | 0.00 | 0.00 | 0.00 | 62 | 1019.0 |
| 20260830091020 | 77 | 184 | 0.0 | 2.0 | 0.00 | 0.00 | 0.00 | 62 | 1018.9 |
| 20260830090518 | 76 | 182 | 0.0 | 2.0 | 0.00 | 0.00 | 0.00 | 63 | 1018.9 |
| 20260830090018 | 76 | 182 | 0.0 | 2.0 | 0.00 | 0.00 | 0.00 | 63 | 1019.0 |
| 20260830085519 | 75 | 182 | 0.0 | 0.0 | 0.00 | 0.00 | 0.00 | 63 | 1019.0 |
| 20260830085021 | 74 | 182 | 0.0 | 0.0 | 0.00 | 0.00 | 0.00 | 68 | 1018.9 |
| 20260830084516 | 72 | 182 | 0.0 | 0.0 | 0.00 | 0.00 | 0.00 | 68 | 1019.0 |
| 20260830084013 | 72 | 281 | 0.0 | 0.0 | 0.00 | 0.00 | 0.00 | 69 | 1019.1 |
| 20260830083511 | 72 | 281 | 0.0 | 0.0 | 0.00 | 0.00 | 0.00 | 71 | 1019.1 |
| 20260830083012 | 72 | 281 | 0.0 | 0.0 | 0.00 | 0.00 | 0.00 | 72 | 1019.1 |
| 20260830082510 | 71 | 285 | 0.0 | 0.0 | 0.00 | 0.00 | 0.00 | 72 | 1019.1 |
| 20260830082008 | 71 | 286 | 0.0 | 0.0 | 0.00 | 0.00 | 0.00 | 73 | 1019.1 |
| 20260830081526 | 71 | 286 | 0.0 | 0.0 | 0.00 | 0.00 | 0.00 | 73 | 1019.1 |
| 20260830081007 | 70 | 286 | 0.0 | 1.0 | 0.00 | 0.00 | 0.00 | 74 | 1019.2 |
| 20260830080509 | 70 | 286 | 0.0 | 2.0 | 0.00 | 0.00 | 0.00 | 75 | 1019.2 |
| 20260830080005 | 70 | 278 | 0.0 | 2.0 | 0.00 | 0.00 | 0.00 | 76 | 1019.3 |
| 20260830075504 | 69 | 285 | 0.0 | 2.0 | 0.00 | 0.00 | 0.00 | 76 | 1019.1 |
| 20260830075004 | 69 | 301 | 0.0 | 3.0 | 0.00 | 0.00 | 0.00 | 77 | 1019.1 |
| 20260830074502 | 69 | 300 | 0.0 | 3.0 | 0.00 | 0.00 | 0.00 | 78 | 1019.1 |
| 20260830074001 | 68 | 230 | 0.0 | 3.0 | 0.00 | 0.00 | 0.00 | 78 | 1019.1 |
| 20260830073603 | 68 | 244 | 0.0 | 2.0 | 0.00 | 0.00 | 0.00 | 79 | 1019.1 |
| 20260830073059 | 68 | 245 | 0.0 | 3.0 | 0.00 | 0.00 | 0.00 | 79 | 1019.1 |
| 20260830072558 | 68 | 258 | 0.0 | 5.0 | 0.00 | 0.00 | 0.00 | 79 | 1019.1 |
| 20260830072058 | 68 | 251 | 0.0 | 5.0 | 0.00 | 0.00 | 0.00 | 80 | 1019.2 |
| 20260830071608 | 67 | 257 | 1.0 | 2.0 | 0.00 | 0.00 | 0.00 | 80 | 1019.0 |
| 20260830071056 | 67 | 256 | 0.0 | 0.0 | 0.00 | 0.00 | 0.00 | 81 | 1019.0 |
| 20260830070554 | 67 | 255 | 0.0 | 0.0 | 0.00 | 0.00 | 0.00 | 81 | 1019.0 |
| 20260830070109 | 67 | 255 | 0.0 | 2.0 | 0.00 | 0.00 | 0.00 | 81 | 1019.0 |
| 20260830065558 | 66 | 257 | 0.0 | 2.0 | 0.00 | 0.00 | 0.00 | 81 | 1019.1 |
| 20260830065055 | 66 | 300 | 0.0 | 2.0 | 0.00 | 0.00 | 0.00 | 82 | 1019.1 |
| 20260830064554 | 66 | 299 | 0.0 | 1.0 | 0.00 | 0.00 | 0.00 | 82 | 1019.1 |
| 20260830064055 | 66 | 300 | 0.0 | 1.0 | 0.00 | 0.00 | 0.00 | 82 | 1019.0 |
| 20260830063557 | 66 | 306 | 0.0 | 2.0 | 0.00 | 0.00 | 0.00 | 82 | 1019.0 |
| 20260830063056 | 66 | 306 | 0.0 | 3.0 | 0.00 | 0.00 | 0.00 | 82 | 1019.0 |
| 20260830062553 | 65 | 306 | 0.0 | 3.0 | 0.00 | 0.00 | 0.00 | 83 | 1019.0 |
| 20260830062054 | 65 | 306 | 0.0 | 3.0 | 0.00 | 0.00 | 0.00 | 83 | 1018.9 |
| 20260830061553 | 65 | 306 | 1.0 | 3.0 | 0.00 | 0.00 | 0.00 | 83 | 1019.0 |
| 20260830061054 | 65 | 236 | 0.0 | 0.0 | 0.00 | 0.00 | 0.00 | 84 | 1018.9 |
| 20260830060554 | 65 | 328 | 0.0 | 0.0 | 0.00 | 0.00 | 0.00 | 84 | 1018.9 |
| 20260830060055 | 65 | 328 | 0.0 | 0.0 | 0.00 | 0.00 | 0.00 | 84 | 1018.8 |
| 20260830055552 | 65 | 328 | 0.0 | 0.0 | 0.00 | 0.00 | 0.00 | 84 | 1018.8 |
| 20260830055054 | 65 | 336 | 0.0 | 0.0 | 0.00 | 0.00 | 0.00 | 84 | 1018.9 |
| 20260830054551 | 64 | 336 | 0.0 | 0.0 | 0.00 | 0.00 | 0.00 | 84 | 1018.9 |
| 20260830054054 | 64 | 338 | 0.0 | 0.0 | 0.00 | 0.00 | 0.00 | 84 | 1019.0 |
| 20260830053549 | 64 | 285 | 0.0 | 0.0 | 0.00 | 0.00 | 0.00 | 84 | 1018.9 |
| 20260830053053 | 64 | 285 | 0.0 | 0.0 | 0.00 | 0.00 | 0.00 | 84 | 1019.0 |
| 20260830052549 | 64 | 309 | 0.0 | 0.0 | 0.00 | 0.00 | 0.00 | 84 | 1019.0 |
| 20260830052048 | 64 | 309 | 0.0 | 0.0 | 0.00 | 0.00 | 0.00 | 84 | 1019.0 |
| 20260830051557 | 64 | 309 | 0.0 | 0.0 | 0.00 | 0.00 | 0.00 | 84 | 1019.0 |
| 20260830051048 | 64 | 309 | 0.0 | 0.0 | 0.00 | 0.00 | 0.00 | 84 | 1019.0 |
| 20260830050548 | 64 | 309 | 0.0 | 0.0 | 0.00 | 0.00 | 0.00 | 84 | 1019.0 |
| 20260830050048 | 64 | 309 | 0.0 | 0.0 | 0.00 | 0.00 | 0.00 | 84 | 1019.0 |
| 20260830045546 | 64 | 309 | 0.0 | 0.0 | 0.00 | 0.00 | 0.00 | 84 | 1019.0 |
| 20260830045046 | 64 | 311 | 0.0 | 0.0 | 0.00 | 0.00 | 0.00 | 84 | 1018.9 |
| 20260830044555 | 64 | 312 | 0.0 | 0.0 | 0.00 | 0.00 | 0.00 | 84 | 1018.8 |
| 20260830044045 | 64 | 313 | 0.0 | 0.0 | 0.00 | 0.00 | 0.00 | 84 | 1018.9 |
| 20260830043545 | 64 | 313 | 0.0 | 0.0 | 0.00 | 0.00 | 0.00 | 84 | 1018.8 |
| 20260830043045 | 64 | 313 | 0.0 | 0.0 | 0.00 | 0.00 | 0.00 | 84 | 1018.8 |
| 20260830042545 | 64 | 317 | 0.0 | 0.0 | 0.00 | 0.00 | 0.00 | 84 | 1018.8 |
| 20260830042045 | 64 | 317 | 0.0 | 0.0 | 0.00 | 0.00 | 0.00 | 84 | 1018.9 |
| 20260830041556 | 64 | 317 | 0.0 | 2.0 | 0.00 | 0.00 | 0.00 | 84 | 1018.9 |
| 20260830041048 | 64 | 265 | 0.0 | 2.0 | 0.00 | 0.00 | 0.00 | 84 | 1018.9 |
| 20260830040544 | 64 | 313 | 0.0 | 2.0 | 0.00 | 0.00 | 0.00 | 84 | 1018.9 |
| 20260830040052 | 64 | 313 | 0.0 | 2.0 | 0.00 | 0.00 | 0.00 | 84 | 1018.9 |
| 20260830035544 | 64 | 315 | 0.0 | 1.0 | 0.00 | 0.00 | 0.00 | 84 | 1019.0 |
| 20260830035044 | 64 | 315 | 0.0 | 1.0 | 0.00 | 0.00 | 0.00 | 84 | 1018.9 |
| 20260830034545 | 64 | 315 | 0.0 | 1.0 | 0.00 | 0.00 | 0.00 | 84 | 1019.0 |
| 20260830034045 | 64 | 315 | 0.0 | 3.0 | 0.00 | 0.00 | 0.00 | 84 | 1019.0 |
| 20260830033547 | 64 | 315 | 0.0 | 3.0 | 0.00 | 0.00 | 0.00 | 84 | 1019.1 |
| 20260830033044 | 64 | 315 | 0.0 | 0.0 | 0.00 | 0.00 | 0.00 | 84 | 1019.0 |
| 20260830032546 | 64 | 315 | 0.0 | 1.0 | 0.00 | 0.00 | 0.00 | 84 | 1019.0 |
| 20260830032046 | 64 | 315 | 0.0 | 2.0 | 0.00 | 0.00 | 0.00 | 84 | 1019.1 |
| 20260830031545 | 64 | 317 | 0.0 | 2.0 | 0.00 | 0.00 | 0.00 | 84 | 1019.0 |
| 20260830031043 | 64 | 317 | 0.0 | 2.0 | 0.00 | 0.00 | 0.00 | 84 | 1019.1 |